createdAt,value
2018-03-22T00:01:07.694Z,95.20
2018-03-22T00:03:35.946Z,95.30
2018-03-22T00:06:04.259Z,95.40
2018-03-22T00:08:31.787Z,95.40
2018-03-22T00:10:59.422Z,95.40
2018-03-22T00:13:27.923Z,95.40
2018-03-22T00:15:55.416Z,95.30
2018-03-22T00:18:22.914Z,95.30
2018-03-22T00:20:50.431Z,95.40
2018-03-22T00:23:17.948Z,95.40
2018-03-22T00:25:45.447Z,95.30
2018-03-22T00:28:13.725Z,95.30
2018-03-22T00:30:41.654Z,95.60
2018-03-22T00:33:09.157Z,95.50
2018-03-22T00:35:36.666Z,95.70
2018-03-22T00:38:04.191Z,95.70
2018-03-22T00:40:31.727Z,95.50
2018-03-22T00:42:59.226Z,95.40
2018-03-22T00:45:26.723Z,95.40
2018-03-22T00:47:54.216Z,95.50
2018-03-22T00:50:21.737Z,95.60
2018-03-22T00:52:49.992Z,95.60
2018-03-22T00:55:17.506Z,95.50
2018-03-22T00:57:45.002Z,95.50
2018-03-22T01:00:12.505Z,95.70
2018-03-22T01:02:40.028Z,95.70
2018-03-22T01:05:07.528Z,95.80
2018-03-22T01:07:35.012Z,95.70
2018-03-22T01:10:02.527Z,95.50
2018-03-22T01:12:30.011Z,95.50
2018-03-22T01:14:57.589Z,95.50
2018-03-22T01:17:25.072Z,95.60
2018-03-22T01:19:53.349Z,95.70
2018-03-22T01:22:20.840Z,95.60
2018-03-22T01:24:48.336Z,95.50
2018-03-22T01:27:15.868Z,95.60
2018-03-22T01:29:43.345Z,95.50
2018-03-22T01:32:11.655Z,95.70
2018-03-22T01:34:39.910Z,95.70
2018-03-22T01:37:07.399Z,95.60
2018-03-22T01:39:34.903Z,95.70
2018-03-22T01:42:02.396Z,95.80
2018-03-22T01:44:29.938Z,96.10
2018-03-22T01:46:57.495Z,96.00
2018-03-22T01:49:24.970Z,95.80
2018-03-22T01:51:52.479Z,95.70
2018-03-22T01:54:19.963Z,95.80
2018-03-22T01:56:47.446Z,95.80
2018-03-22T01:59:14.952Z,95.70
2018-03-22T02:01:42.443Z,95.50
2018-03-22T02:04:09.940Z,95.50
2018-03-22T02:06:38.176Z,95.80
2018-03-22T02:09:05.652Z,95.80
2018-03-22T02:11:33.156Z,95.90
2018-03-22T02:14:00.636Z,96.00
2018-03-22T02:16:28.126Z,96.10
2018-03-22T02:18:55.647Z,96.10
2018-03-22T02:21:23.117Z,95.90
2018-03-22T02:23:50.631Z,96.10
2018-03-22T02:26:18.121Z,96.00
2018-03-22T02:28:45.611Z,96.00
2018-03-22T02:31:13.115Z,95.90
2018-03-22T02:33:40.613Z,95.90
2018-03-22T02:36:08.126Z,95.90
2018-03-22T02:38:35.616Z,95.80
2018-03-22T02:41:03.114Z,95.80
2018-03-22T02:43:31.380Z,95.70
2018-03-22T02:45:58.865Z,95.50
2018-03-22T02:48:27.138Z,95.60
2018-03-22T02:50:55.395Z,95.70
2018-03-22T02:53:22.900Z,95.70
2018-03-22T02:55:50.383Z,95.70
2018-03-22T02:58:17.849Z,95.60
2018-03-22T03:00:45.368Z,95.40
2018-03-22T03:03:12.846Z,95.50
2018-03-22T03:05:40.357Z,95.30
2018-03-22T03:08:08.612Z,95.10
2018-03-22T03:10:36.117Z,95.00
2018-03-22T03:13:03.625Z,95.00
2018-03-22T03:15:31.105Z,95.00
2018-03-22T03:17:58.595Z,95.10
2018-03-22T03:20:26.079Z,95.00
2018-03-22T03:22:53.556Z,94.90
2018-03-22T03:25:21.062Z,94.80
2018-03-22T03:27:48.546Z,94.90
2018-03-22T03:30:16.065Z,94.90
2018-03-22T03:32:43.528Z,94.90
2018-03-22T03:35:11.004Z,94.70
2018-03-22T03:37:38.512Z,94.80
2018-03-22T03:40:06.001Z,94.80
2018-03-22T03:42:33.497Z,95.00
2018-03-22T03:45:00.993Z,95.10
2018-03-22T03:47:28.480Z,95.20
2018-03-22T03:49:55.984Z,95.40
2018-03-22T03:52:23.468Z,95.50
2018-03-22T03:54:51.725Z,95.50
2018-03-22T03:57:19.207Z,95.40
2018-03-22T03:59:47.472Z,95.50
2018-03-22T04:02:15.938Z,95.50
2018-03-22T04:04:43.418Z,95.40
2018-03-22T04:07:11.673Z,95.30
2018-03-22T04:09:39.192Z,95.30
2018-03-22T04:12:06.702Z,95.30
2018-03-22T04:14:34.208Z,95.50
2018-03-22T04:17:01.711Z,95.50
2018-03-22T04:19:29.224Z,95.50
2018-03-22T04:21:56.735Z,95.50
2018-03-22T04:24:24.248Z,95.60
2018-03-22T04:26:51.768Z,95.50
2018-03-22T04:29:20.016Z,95.40
2018-03-22T04:31:47.522Z,95.30
2018-03-22T04:34:15.011Z,95.20
2018-03-22T04:36:42.528Z,95.00
2018-03-22T04:39:10.037Z,94.80
2018-03-22T04:41:37.532Z,94.70
2018-03-22T04:44:05.780Z,94.60
2018-03-22T04:46:33.260Z,94.50
2018-03-22T04:49:01.519Z,94.60
2018-03-22T04:51:29.792Z,94.60
2018-03-22T04:53:58.092Z,94.40
2018-03-22T04:56:26.338Z,94.40
2018-03-22T04:58:53.847Z,94.30
2018-03-22T05:01:21.347Z,94.20
2018-03-22T05:03:48.879Z,94.30
2018-03-22T05:06:16.370Z,94.20
2018-03-22T05:08:43.885Z,94.20
2018-03-22T05:11:11.403Z,94.20
2018-03-22T05:13:39.660Z,94.10
2018-03-22T05:16:07.155Z,94.00
2018-03-22T05:18:34.651Z,93.90
2018-03-22T05:21:02.155Z,94.00
2018-03-22T05:23:30.445Z,94.20
2018-03-22T05:25:57.953Z,94.10
2018-03-22T05:28:25.464Z,94.20
2018-03-22T05:30:53.016Z,94.40
2018-03-22T05:33:20.515Z,94.40
2018-03-22T05:35:48.047Z,94.50
2018-03-22T05:38:15.563Z,94.60
2018-03-22T05:40:43.865Z,94.50
2018-03-22T05:43:11.397Z,94.50
2018-03-22T05:45:38.927Z,94.50
2018-03-22T05:48:06.404Z,94.30
2018-03-22T05:50:33.890Z,94.10
2018-03-22T05:53:02.141Z,94.10
2018-03-22T05:55:30.401Z,94.10
2018-03-22T05:57:57.894Z,94.00
2018-03-22T06:00:26.146Z,94.10
2018-03-22T06:02:53.640Z,94.00
2018-03-22T06:05:21.137Z,94.20
2018-03-22T06:07:48.629Z,94.30
2018-03-22T06:10:16.145Z,94.40
2018-03-22T06:12:43.703Z,94.40
2018-03-22T06:15:11.186Z,94.40
2018-03-22T06:17:38.683Z,94.40
2018-03-22T06:20:06.161Z,94.50
2018-03-22T06:22:34.429Z,94.60
2018-03-22T06:25:01.899Z,94.50
2018-03-22T06:27:29.399Z,94.60
2018-03-22T06:29:56.895Z,94.60
2018-03-22T06:32:24.469Z,94.50
2018-03-22T06:34:51.969Z,94.50
2018-03-22T06:37:19.463Z,94.30
2018-03-22T06:39:47.739Z,94.50
2018-03-22T06:42:15.243Z,94.40
2018-03-22T06:44:42.765Z,94.30
2018-03-22T06:47:10.268Z,94.30
2018-03-22T06:49:37.796Z,94.30
2018-03-22T06:52:05.256Z,94.20
2018-03-22T06:54:32.803Z,94.20
2018-03-22T06:57:00.305Z,94.30
2018-03-22T06:59:28.618Z,94.10
2018-03-22T07:01:56.122Z,93.90
2018-03-22T07:04:23.669Z,93.80
2018-03-22T07:06:51.278Z,93.90
2018-03-22T07:09:18.788Z,93.80
2018-03-22T07:11:46.306Z,93.70
2018-03-22T07:14:14.581Z,93.70
2018-03-22T07:16:42.067Z,93.70
2018-03-22T07:19:09.577Z,93.60
2018-03-22T07:21:37.067Z,93.60
2018-03-22T07:24:04.564Z,93.50
2018-03-22T07:26:32.044Z,93.30
2018-03-22T07:28:59.531Z,93.20
2018-03-22T07:31:27.041Z,93.00
2018-03-22T07:33:54.531Z,93.00
2018-03-22T07:36:22.816Z,92.80
2018-03-22T07:38:51.086Z,92.80
2018-03-22T07:41:18.554Z,92.80
2018-03-22T07:43:46.830Z,93.00
2018-03-22T07:46:14.302Z,92.90
2018-03-22T07:48:41.795Z,92.90
2018-03-22T07:51:09.303Z,92.90
2018-03-22T07:53:36.826Z,93.10
2018-03-22T07:56:04.346Z,93.40
2018-03-22T07:58:31.843Z,93.70
2018-03-22T08:00:59.368Z,94.30
2018-03-22T08:03:26.865Z,95.20
2018-03-22T08:05:54.392Z,95.90
2018-03-22T08:08:21.881Z,96.80
2018-03-22T08:10:49.393Z,97.70
2018-03-22T08:13:16.876Z,98.50
2018-03-22T08:15:44.373Z,99.30
2018-03-22T08:18:12.638Z,99.90
2018-03-22T08:20:40.401Z,99.90
2018-03-22T08:23:07.954Z,99.90
2018-03-22T08:25:36.239Z,99.90
2018-03-22T08:28:04.516Z,99.90
2018-03-22T08:30:32.000Z,99.90
2018-03-22T08:32:59.493Z,99.90
2018-03-22T08:35:26.980Z,99.90
2018-03-22T08:37:55.983Z,99.90
2018-03-22T08:40:23.449Z,99.90
2018-03-22T08:42:51.697Z,99.90
2018-03-22T08:45:19.194Z,99.90
2018-03-22T08:47:46.681Z,99.90
2018-03-22T08:50:14.168Z,99.90
2018-03-22T08:52:41.642Z,99.90
2018-03-22T08:55:09.168Z,99.90
2018-03-22T08:57:36.771Z,99.90
2018-03-22T09:00:04.270Z,99.90
2018-03-22T09:02:31.779Z,99.90
2018-03-22T09:04:59.682Z,99.90
2018-03-22T09:07:28.002Z,99.90
2018-03-22T09:09:56.258Z,99.90
2018-03-22T09:12:23.746Z,99.90
2018-03-22T09:14:51.230Z,99.90
2018-03-22T09:17:19.473Z,99.90
2018-03-22T09:19:46.975Z,99.90
2018-03-22T09:22:14.504Z,99.90
2018-03-22T09:24:42.113Z,99.90
2018-03-22T09:27:09.648Z,99.90
2018-03-22T09:29:38.044Z,99.90
2018-03-22T09:32:05.524Z,99.90
2018-03-22T09:34:33.040Z,99.90
2018-03-22T09:37:00.569Z,99.90
2018-03-22T09:39:28.070Z,99.90
2018-03-22T09:41:56.505Z,99.90
2018-03-22T09:44:24.342Z,99.90
2018-03-22T09:46:51.863Z,99.90
2018-03-22T09:49:19.365Z,99.90
2018-03-22T09:51:46.871Z,99.90
2018-03-22T09:54:14.466Z,99.90
2018-03-22T09:56:41.988Z,99.90
2018-03-22T09:59:09.478Z,99.90
2018-03-22T10:01:36.956Z,99.90
2018-03-22T10:04:04.446Z,99.90
2018-03-22T10:06:32.995Z,99.90
2018-03-22T10:09:00.517Z,99.90
2018-03-22T10:11:27.995Z,99.90
2018-03-22T10:13:55.479Z,99.90
2018-03-22T10:16:23.027Z,99.90
2018-03-22T10:18:50.487Z,99.90
2018-03-22T10:21:18.058Z,99.90
2018-03-22T10:23:45.545Z,99.90
2018-03-22T10:26:13.067Z,99.90
2018-03-22T10:28:40.888Z,99.90
2018-03-22T10:31:08.381Z,99.90
2018-03-22T10:33:37.355Z,99.90
2018-03-22T10:36:05.339Z,99.90
2018-03-22T10:38:32.829Z,99.90
2018-03-22T10:41:00.364Z,99.90
2018-03-22T10:43:27.883Z,99.90
2018-03-22T10:45:55.370Z,99.90
2018-03-22T10:48:23.677Z,99.90
2018-03-22T10:50:51.150Z,99.90
2018-03-22T10:53:20.004Z,99.90
2018-03-22T10:55:52.306Z,99.90
2018-03-22T10:58:20.606Z,99.90
2018-03-22T11:00:53.719Z,99.90
2018-03-22T11:03:26.695Z,99.90
2018-03-22T11:05:54.212Z,99.90
2018-03-22T11:08:22.478Z,99.90
2018-03-22T11:10:49.975Z,99.90
2018-03-22T11:13:17.503Z,99.90
2018-03-22T11:15:45.004Z,99.90
2018-03-22T11:18:12.542Z,99.90
2018-03-22T11:20:40.052Z,99.90
2018-03-22T11:23:07.528Z,99.90
2018-03-22T11:25:35.051Z,99.90
2018-03-22T11:28:02.695Z,99.90
2018-03-22T11:30:30.508Z,99.90
2018-03-22T11:32:57.992Z,99.90
2018-03-22T11:35:25.761Z,99.90
2018-03-22T11:37:54.435Z,99.90
2018-03-22T11:40:22.692Z,99.90
2018-03-22T11:42:50.203Z,99.90
2018-03-22T11:45:17.683Z,99.90
2018-03-22T11:47:45.173Z,99.90
2018-03-22T11:50:12.676Z,99.90
2018-03-22T11:52:40.176Z,99.90
2018-03-22T11:55:07.695Z,99.90
2018-03-22T11:57:36.151Z,99.90
2018-03-22T12:00:04.560Z,99.90
2018-03-22T12:02:32.088Z,99.90
2018-03-22T12:04:59.588Z,99.90
2018-03-22T12:07:27.107Z,99.90
2018-03-22T12:09:54.609Z,99.90
2018-03-22T12:12:22.107Z,99.90
2018-03-22T12:14:50.688Z,99.90
2018-03-22T12:17:18.169Z,99.90
2018-03-22T12:19:45.931Z,99.90
2018-03-22T12:22:13.424Z,99.90
2018-03-22T12:24:40.923Z,99.90
2018-03-22T12:27:09.213Z,99.90
2018-03-22T12:29:36.744Z,99.90
2018-03-22T12:32:06.007Z,99.90
2018-03-22T12:34:33.509Z,99.90
2018-03-22T12:37:04.571Z,99.90
2018-03-22T12:39:32.087Z,99.90
2018-03-22T12:41:59.587Z,99.90
2018-03-22T12:44:27.096Z,99.90
2018-03-22T12:46:54.599Z,99.90
2018-03-22T12:49:22.099Z,99.90
2018-03-22T12:51:49.595Z,99.90
2018-03-22T12:54:17.125Z,99.90
2018-03-22T12:56:44.624Z,99.90
2018-03-22T12:59:12.883Z,99.90
2018-03-22T13:01:41.157Z,99.90
2018-03-22T13:04:08.925Z,99.90
2018-03-22T13:06:36.481Z,99.90
2018-03-22T13:09:04.843Z,99.90
2018-03-22T13:11:32.432Z,99.90
2018-03-22T13:14:01.599Z,99.90
2018-03-22T13:16:29.137Z,99.90
2018-03-22T13:18:56.689Z,99.90
2018-03-22T13:21:24.211Z,99.90
2018-03-22T13:23:51.801Z,99.90
2018-03-22T13:26:20.254Z,99.90
2018-03-22T13:28:47.808Z,99.90
2018-03-22T13:31:16.141Z,99.90
2018-03-22T13:33:43.640Z,99.90
2018-03-22T13:36:11.152Z,99.90
2018-03-22T13:38:38.672Z,99.90
2018-03-22T13:41:06.985Z,99.90
2018-03-22T13:43:34.493Z,99.90
2018-03-22T13:46:03.366Z,99.90
2018-03-22T13:48:31.666Z,99.90
2018-03-22T13:50:59.184Z,99.90
2018-03-22T13:53:26.701Z,99.90
2018-03-22T13:55:54.197Z,99.90
2018-03-22T13:58:21.883Z,99.90
2018-03-22T14:00:49.715Z,99.90
2018-03-22T14:03:17.214Z,99.90
2018-03-22T14:05:44.714Z,99.90
2018-03-22T14:08:12.247Z,99.90
2018-03-22T14:10:39.766Z,99.90
2018-03-22T14:13:07.301Z,99.90
2018-03-22T14:15:34.804Z,99.90
2018-03-22T14:18:03.094Z,99.90
2018-03-22T14:20:30.603Z,99.90
2018-03-22T14:22:58.106Z,99.90
2018-03-22T14:25:25.661Z,99.90
2018-03-22T14:27:53.202Z,99.90
2018-03-22T14:30:21.496Z,99.90
2018-03-22T14:32:48.982Z,99.90
2018-03-22T14:35:16.478Z,99.90
2018-03-22T14:37:44.007Z,99.90
2018-03-22T14:40:11.471Z,99.90
2018-03-22T14:42:39.014Z,99.90
2018-03-22T14:45:06.531Z,99.90
2018-03-22T14:47:35.024Z,99.90
2018-03-22T14:50:02.534Z,99.90
2018-03-22T14:52:30.090Z,99.90
2018-03-22T14:54:57.620Z,99.90
2018-03-22T14:57:25.115Z,99.90
2018-03-22T14:59:52.625Z,99.90
2018-03-22T15:02:20.138Z,99.90
2018-03-22T15:04:47.686Z,99.90
2018-03-22T15:07:15.496Z,99.90
2018-03-22T15:09:44.187Z,99.90
2018-03-22T15:12:12.388Z,99.90
2018-03-22T15:14:39.887Z,99.90
2018-03-22T15:17:07.387Z,99.90
2018-03-22T15:19:35.865Z,99.90
2018-03-22T15:22:03.353Z,99.90
2018-03-22T15:24:31.577Z,99.90
2018-03-22T15:26:59.132Z,99.90
2018-03-22T15:29:26.679Z,99.90
2018-03-22T15:31:54.191Z,99.90
2018-03-22T15:34:21.719Z,99.90
2018-03-22T15:36:49.235Z,99.90
2018-03-22T15:39:16.781Z,99.90
2018-03-22T15:41:44.302Z,99.90
2018-03-22T15:44:11.819Z,99.90
2018-03-22T15:46:39.301Z,99.90
2018-03-22T15:49:06.795Z,99.90
2018-03-22T15:51:34.289Z,99.90
2018-03-22T15:54:02.048Z,99.90
2018-03-22T15:56:29.621Z,99.90
2018-03-22T15:58:57.908Z,99.90
2018-03-22T16:01:26.201Z,99.90
2018-03-22T16:03:54.476Z,99.90
2018-03-22T16:06:22.751Z,99.90
2018-03-22T16:08:50.275Z,99.90
2018-03-22T16:11:17.778Z,99.90
2018-03-22T16:13:45.307Z,99.90
2018-03-22T16:16:13.605Z,99.90
2018-03-22T16:18:41.839Z,99.90
2018-03-22T16:21:10.094Z,99.90
2018-03-22T16:23:37.581Z,99.90
2018-03-22T16:26:05.124Z,99.90
2018-03-22T16:28:32.656Z,99.90
2018-03-22T16:31:00.162Z,99.90
2018-03-22T16:33:28.481Z,99.90
2018-03-22T16:35:56.003Z,99.90
2018-03-22T16:38:24.134Z,99.90
2018-03-22T16:40:51.653Z,99.90
2018-03-22T16:43:19.217Z,99.90
2018-03-22T16:45:46.745Z,99.90
2018-03-22T16:48:15.077Z,99.90
2018-03-22T16:50:42.608Z,99.90
2018-03-22T16:53:10.128Z,99.90
2018-03-22T16:55:37.710Z,99.90
2018-03-22T16:58:05.268Z,99.90
2018-03-22T17:00:33.606Z,99.90
2018-03-22T17:03:01.612Z,99.90
2018-03-22T17:05:29.129Z,99.90
2018-03-22T17:07:56.673Z,99.90
2018-03-22T17:10:24.211Z,99.90
2018-03-22T17:12:51.739Z,99.90
2018-03-22T17:15:19.277Z,99.90
2018-03-22T17:17:46.783Z,99.90
2018-03-22T17:20:14.341Z,99.90
2018-03-22T17:22:41.870Z,99.90
2018-03-22T17:25:09.674Z,99.90
2018-03-22T17:27:37.135Z,99.90
2018-03-22T17:30:04.958Z,99.90
2018-03-22T17:32:32.508Z,99.90
2018-03-22T17:35:00.105Z,99.90
2018-03-22T17:37:27.659Z,99.90
2018-03-22T17:39:55.930Z,99.90
2018-03-22T17:42:24.243Z,99.90
2018-03-22T17:44:51.773Z,99.90
2018-03-22T17:47:19.277Z,99.90
2018-03-22T17:49:47.932Z,99.90
2018-03-22T17:52:15.456Z,99.90
2018-03-22T17:54:43.732Z,99.90
2018-03-22T17:57:12.052Z,99.90
2018-03-22T17:59:39.816Z,99.90
2018-03-22T18:02:07.322Z,99.90
2018-03-22T18:04:34.861Z,99.90
2018-03-22T18:07:03.173Z,99.90
2018-03-22T18:09:30.728Z,99.90
2018-03-22T18:11:59.088Z,99.90
2018-03-22T18:14:26.589Z,99.90
2018-03-22T18:16:54.156Z,99.90
2018-03-22T18:19:22.469Z,99.90
2018-03-22T18:21:50.006Z,99.90
2018-03-22T18:24:17.561Z,99.90
2018-03-22T18:26:45.073Z,99.90
2018-03-22T18:29:12.653Z,99.90
2018-03-22T18:31:40.198Z,99.90
2018-03-22T18:34:08.191Z,99.90
2018-03-22T18:36:35.719Z,99.90
2018-03-22T18:39:03.267Z,99.90
2018-03-22T18:41:30.798Z,99.90
2018-03-22T18:43:58.306Z,99.90
2018-03-22T18:46:26.601Z,99.90
2018-03-22T18:48:54.115Z,99.90
2018-03-22T18:51:21.614Z,99.90
2018-03-22T18:53:49.440Z,99.90
2018-03-22T18:56:17.871Z,99.90
2018-03-22T18:58:45.399Z,99.90
2018-03-22T19:01:12.919Z,99.90
2018-03-22T19:03:40.431Z,99.90
2018-03-22T19:06:07.950Z,99.90
2018-03-22T19:08:35.463Z,99.90
2018-03-22T19:11:04.069Z,99.90
2018-03-22T19:13:32.693Z,99.90
2018-03-22T19:16:00.300Z,99.90
2018-03-22T19:18:27.939Z,99.90
2018-03-22T19:20:55.486Z,99.90
2018-03-22T19:23:23.051Z,99.90
2018-03-22T19:25:50.592Z,99.90
2018-03-22T19:28:18.150Z,99.90
2018-03-22T19:30:46.481Z,99.90
2018-03-22T19:33:14.007Z,99.90
2018-03-22T19:35:41.541Z,99.90
2018-03-22T19:38:09.860Z,99.90
2018-03-22T19:40:37.406Z,99.90
2018-03-22T19:43:04.973Z,99.90
2018-03-22T19:45:32.559Z,99.90
2018-03-22T19:48:00.894Z,99.90
2018-03-22T19:50:28.406Z,99.90
2018-03-22T19:52:55.967Z,99.90
2018-03-22T19:55:23.460Z,99.90
2018-03-22T19:57:51.752Z,99.90
2018-03-22T20:00:20.927Z,99.90
2018-03-22T20:02:48.584Z,99.90
2018-03-22T20:05:16.091Z,99.90
2018-03-22T20:07:43.628Z,99.90
2018-03-22T20:10:11.166Z,99.90
2018-03-22T20:12:38.692Z,99.90
2018-03-22T20:15:06.259Z,99.90
2018-03-22T20:17:33.780Z,99.90
2018-03-22T20:20:01.322Z,99.90
2018-03-22T20:22:28.838Z,99.90
2018-03-22T20:24:56.341Z,99.90
2018-03-22T20:27:23.887Z,99.90
2018-03-22T20:29:51.382Z,99.90
2018-03-22T20:32:18.870Z,99.90
2018-03-22T20:34:46.372Z,99.90
2018-03-22T20:37:13.882Z,99.90
2018-03-22T20:39:41.391Z,99.90
2018-03-22T20:42:08.894Z,99.90
2018-03-22T20:44:36.412Z,99.90
2018-03-22T20:47:03.942Z,99.90
2018-03-22T20:49:32.216Z,99.90
2018-03-22T20:52:01.313Z,99.90
2018-03-22T20:54:28.851Z,99.90
2018-03-22T20:56:56.389Z,99.90
2018-03-22T20:59:23.915Z,99.90
2018-03-22T21:01:51.443Z,99.90
2018-03-22T21:04:19.730Z,99.90
2018-03-22T21:06:47.265Z,99.90
2018-03-22T21:09:14.855Z,99.90
2018-03-22T21:11:42.476Z,99.90
2018-03-22T21:14:10.011Z,99.90
2018-03-22T21:16:37.530Z,99.90
2018-03-22T21:19:05.091Z,99.90
2018-03-22T21:21:32.635Z,99.90
2018-03-22T21:24:00.178Z,99.90
2018-03-22T21:26:27.718Z,99.90
2018-03-22T21:28:56.047Z,99.90
2018-03-22T21:31:23.575Z,99.90
2018-03-22T21:33:51.199Z,99.90
2018-03-22T21:36:19.017Z,99.90
2018-03-22T21:38:46.584Z,99.90
2018-03-22T21:41:14.116Z,99.90
2018-03-22T21:43:53.369Z,99.90
2018-03-22T21:46:23.483Z,99.90
2018-03-22T21:48:51.796Z,99.90
2018-03-22T21:51:19.416Z,99.90
2018-03-22T21:53:46.955Z,99.90
2018-03-22T21:56:14.487Z,99.90
2018-03-22T21:58:42.061Z,99.90
2018-03-22T22:01:09.589Z,99.90
2018-03-22T22:03:37.101Z,99.90
2018-03-22T22:06:04.618Z,99.90
2018-03-22T22:08:32.144Z,99.90
2018-03-22T22:10:59.650Z,99.90
2018-03-22T22:13:27.160Z,99.90
2018-03-22T22:15:54.691Z,99.90
2018-03-22T22:18:22.232Z,99.90
2018-03-22T22:20:49.994Z,99.90
2018-03-22T22:23:17.507Z,99.90
2018-03-22T22:25:45.026Z,99.90
2018-03-22T22:28:12.538Z,99.90
2018-03-22T22:30:40.081Z,99.90
2018-03-22T22:33:07.616Z,99.90
2018-03-22T22:35:35.142Z,99.90
2018-03-22T22:38:02.700Z,99.90
2018-03-22T22:40:30.233Z,99.90
2018-03-22T22:42:57.755Z,99.90
2018-03-22T22:45:26.027Z,99.90
2018-03-22T22:47:54.336Z,99.90
2018-03-22T22:50:21.858Z,99.90
2018-03-22T22:52:50.173Z,99.90
2018-03-22T22:55:17.718Z,99.90
2018-03-22T22:57:46.121Z,99.90
2018-03-22T23:00:13.646Z,99.90
2018-03-22T23:02:41.155Z,99.90
2018-03-22T23:05:08.680Z,99.90
2018-03-22T23:07:36.177Z,99.90
2018-03-22T23:10:03.699Z,99.90
2018-03-22T23:12:31.835Z,99.90
2018-03-22T23:14:59.330Z,99.90
2018-03-22T23:17:26.817Z,99.90
2018-03-22T23:19:54.339Z,99.90
2018-03-22T23:22:21.835Z,99.90
2018-03-22T23:24:49.364Z,99.90
2018-03-22T23:27:16.883Z,99.90
2018-03-22T23:29:44.445Z,99.90
2018-03-22T23:32:12.712Z,99.90
2018-03-22T23:34:40.218Z,99.90
2018-03-22T23:37:07.743Z,99.90
2018-03-22T23:39:35.263Z,99.90
2018-03-22T23:42:02.808Z,99.90
2018-03-22T23:44:30.301Z,99.90
2018-03-22T23:46:57.800Z,99.90
2018-03-22T23:49:26.067Z,99.90
2018-03-22T23:51:53.568Z,99.90
2018-03-22T23:54:21.084Z,99.90
2018-03-22T23:56:48.605Z,99.90
2018-03-22T23:59:16.150Z,99.90
